PWSweather.com
Personal Weather Stations
Station Observations
KCAOCEAN4
Jeffries Ranch, Oceanside, CA 92057

Jeffries RanchOceanside, CA 92057

Lat: 33.2463208, Lon: -117.25335080000002

Elevation: 207

Station Type: Davis Vantage Vue

jeffriesranchweather.com

High Low Average
Temperature 63.9°F17.7°C 56.1°F13.4°C 60.6°F15.9°C
Dew Point 60.1°F15.6°C 50.9°F10.5°C 55.5°F13.1°C
Winds 4.9 mph 7.9 kmh Calm Calm 1.0 mph S1.6 kmh S
Wind Gusts 9.0 mph14.5 kmh -- 4.0 mph6.4 kmh
Humidity 95% 69% 83%
Pressure 30.07 in1018.3 mb 29.85 in1010.8 mb -
Precipitation 0.23 in5.8 mm - -
Hour Temp Dew Point Humidity Winds Wind Gusts Pressure Precip Precip Rate Daily Precip Total
12:04 AM 59.5°F15.3°C 49.8°F9.9°C 70% 0.9 mph E1.4 kmh E 2.9 mph4.7 kmh 29.90 in1012.5 mb 0.00 in0.0 mm 0.00 in0.0 mm 0.00 in0.0 mm
12:15 AM 59.5°F15.3°C 50.2°F10.1°C 71% 2.0 mph ENE3.2 kmh ENE 6.0 mph9.7 kmh 29.90 in1012.5 mb 0.00 in0.0 mm 0.00 in0.0 mm 0.00 in0.0 mm
12:25 AM 59.7°F15.4°C 50.4°F10.2°C 71% 4.0 mph NE6.4 kmh NE 7.0 mph11.3 kmh 29.89 in1012.2 mb 0.00 in0.0 mm 0.00 in0.0 mm 0.00 in0.0 mm
12:35 AM 59.9°F15.5°C 50.5°F10.3°C 71% 2.0 mph W3.2 kmh W 4.9 mph7.9 kmh 29.89 in1012.2 mb 0.00 in0.0 mm 0.00 in0.0 mm 0.00 in0.0 mm
12:45 AM 59.9°F15.5°C 50.9°F10.5°C 72% Calm Calm 2.0 mph3.2 kmh 29.89 in1012.2 mb 0.00 in0.0 mm 0.00 in0.0 mm 0.00 in0.0 mm
12:55 AM 59.7°F15.4°C 50.7°F10.4°C 72% Calm Calm 2.0 mph3.2 kmh 29.89 in1012.2 mb 0.00 in0.0 mm 0.00 in0.0 mm 0.00 in0.0 mm
01:05 AM 59.5°F15.3°C 50.9°F10.5°C 73% Calm Calm 0.9 mph1.4 kmh 29.90 in1012.5 mb 0.00 in0.0 mm 0.00 in0.0 mm 0.00 in0.0 mm
01:15 AM 59.4°F15.2°C 51.1°F10.6°C 74% Calm Calm -- 29.90 in1012.5 mb 0.00 in0.0 mm 0.00 in0.0 mm 0.00 in0.0 mm
01:25 AM 59.4°F15.2°C 51.4°F10.8°C 75% Calm Calm -- 29.91 in1012.9 mb 0.00 in0.0 mm 0.00 in0.0 mm 0.00 in0.0 mm
01:35 AM 59.4°F15.2°C 51.8°F11.0°C 76% 0.9 mph E1.4 kmh E 2.0 mph3.2 kmh 29.91 in1012.9 mb 0.00 in0.0 mm 0.00 in0.0 mm 0.00 in0.0 mm
01:45 AM 59.5°F15.3°C 51.6°F10.9°C 75% 2.0 mph SE3.2 kmh SE 4.0 mph6.4 kmh 29.91 in1012.9 mb 0.00 in0.0 mm 0.00 in0.0 mm 0.00 in0.0 mm
01:55 AM 59.5°F15.3°C 51.6°F10.9°C 75% 2.0 mph ESE3.2 kmh ESE 4.0 mph6.4 kmh 29.90 in1012.5 mb 0.00 in0.0 mm 0.00 in0.0 mm 0.00 in0.0 mm
02:05 AM 60.3°F15.7°C 52.0°F11.1°C 74% 0.9 mph SW1.4 kmh SW 2.9 mph4.7 kmh 29.90 in1012.5 mb 0.00 in0.0 mm 0.00 in0.0 mm 0.00 in0.0 mm
02:15 AM 60.6°F15.9°C 52.0°F11.1°C 73% 0.9 mph SE1.4 kmh SE 2.9 mph4.7 kmh 29.91 in1012.9 mb 0.00 in0.0 mm 0.00 in0.0 mm 0.00 in0.0 mm
02:25 AM 60.8°F16.0°C 52.2°F11.2°C 73% 0.9 mph WSW1.4 kmh WSW 2.0 mph3.2 kmh 29.91 in1012.9 mb 0.00 in0.0 mm 0.00 in0.0 mm 0.00 in0.0 mm
02:35 AM 60.6°F15.9°C 52.3°F11.3°C 74% Calm Calm 0.9 mph1.4 kmh 29.90 in1012.5 mb 0.00 in0.0 mm 0.00 in0.0 mm 0.00 in0.0 mm
02:45 AM 60.6°F15.9°C 52.3°F11.3°C 74% 2.0 mph E3.2 kmh E 6.0 mph9.7 kmh 29.89 in1012.2 mb 0.00 in0.0 mm 0.00 in0.0 mm 0.00 in0.0 mm
02:55 AM 60.4°F15.8°C 52.2°F11.2°C 74% 2.0 mph E3.2 kmh E 4.9 mph7.9 kmh 29.88 in1011.9 mb 0.00 in0.0 mm 0.00 in0.0 mm 0.00 in0.0 mm
03:05 AM 61.5°F16.4°C 52.0°F11.1°C 71% 2.9 mph NNE4.7 kmh NNE 7.0 mph11.3 kmh 29.85 in1010.8 mb 0.00 in0.0 mm 0.00 in0.0 mm 0.00 in0.0 mm
03:15 AM 62.4°F16.9°C 52.2°F11.2°C 69% 2.0 mph SE3.2 kmh SE 6.0 mph9.7 kmh 29.88 in1011.9 mb 0.00 in0.0 mm 0.00 in0.0 mm 0.00 in0.0 mm
03:25 AM 61.9°F16.6°C 52.3°F11.3°C 71% 2.0 mph NE3.2 kmh NE 4.9 mph7.9 kmh 29.87 in1011.5 mb 0.00 in0.0 mm 0.00 in0.0 mm 0.00 in0.0 mm
03:35 AM 61.5°F16.4°C 52.7°F11.5°C 73% 0.9 mph W1.4 kmh W 4.0 mph6.4 kmh 29.90 in1012.5 mb 0.00 in0.0 mm 0.00 in0.0 mm 0.00 in0.0 mm
03:45 AM 61.5°F16.4°C 52.7°F11.5°C 73% 2.0 mph NE3.2 kmh NE 7.0 mph11.3 kmh 29.86 in1011.2 mb 0.00 in0.0 mm 0.00 in0.0 mm 0.00 in0.0 mm
03:55 AM 61.5°F16.4°C 52.7°F11.5°C 73% 2.9 mph NE4.7 kmh NE 6.0 mph9.7 kmh 29.86 in1011.2 mb 0.00 in0.0 mm 0.00 in0.0 mm 0.00 in0.0 mm
04:05 AM 62.2°F16.8°C 53.1°F11.7°C 72% 2.0 mph NNE3.2 kmh NNE 6.0 mph9.7 kmh 29.88 in1011.9 mb 0.00 in0.0 mm 0.00 in0.0 mm 0.00 in0.0 mm
04:15 AM 62.4°F16.9°C 52.9°F11.6°C 71% 0.9 mph W1.4 kmh W 4.0 mph6.4 kmh 29.89 in1012.2 mb 0.00 in0.0 mm 0.00 in0.0 mm 0.00 in0.0 mm
04:25 AM 62.4°F16.9°C 52.9°F11.6°C 71% 0.9 mph ENE1.4 kmh ENE 2.9 mph4.7 kmh 29.88 in1011.9 mb 0.00 in0.0 mm 0.00 in0.0 mm 0.00 in0.0 mm
04:35 AM 62.4°F16.9°C 53.2°F11.8°C 72% 0.9 mph ESE1.4 kmh ESE 4.0 mph6.4 kmh 29.88 in1011.9 mb 0.00 in0.0 mm 0.00 in0.0 mm 0.00 in0.0 mm
04:45 AM 62.1°F16.7°C 53.2°F11.8°C 73% 0.9 mph SSE1.4 kmh SSE 2.0 mph3.2 kmh 29.89 in1012.2 mb 0.00 in0.0 mm 0.00 in0.0 mm 0.00 in0.0 mm
04:55 AM 62.1°F16.7°C 53.2°F11.8°C 73% 0.9 mph SSW1.4 kmh SSW 2.0 mph3.2 kmh 29.90 in1012.5 mb 0.00 in0.0 mm 0.00 in0.0 mm 0.00 in0.0 mm
05:05 AM 62.2°F16.8°C 53.1°F11.7°C 72% 2.0 mph SE3.2 kmh SE 3.0 mph4.8 kmh 29.90 in1012.5 mb 0.00 in0.0 mm 0.00 in0.0 mm 0.00 in0.0 mm
05:15 AM 62.2°F16.8°C 53.4°F11.9°C 73% 0.9 mph SE1.4 kmh SE 2.9 mph4.7 kmh 29.91 in1012.9 mb 0.00 in0.0 mm 0.00 in0.0 mm 0.00 in0.0 mm
05:25 AM 62.4°F16.9°C 53.6°F12.0°C 73% 2.0 mph SE3.2 kmh SE 4.0 mph6.4 kmh 29.91 in1012.9 mb 0.00 in0.0 mm 0.00 in0.0 mm 0.00 in0.0 mm
05:35 AM 62.2°F16.8°C 53.8°F12.1°C 74% 0.9 mph WSW1.4 kmh WSW 2.9 mph4.7 kmh 29.93 in1013.5 mb 0.00 in0.0 mm 0.00 in0.0 mm 0.00 in0.0 mm
05:45 AM 61.9°F16.6°C 53.8°F12.1°C 75% 2.0 mph SW3.2 kmh SW 6.0 mph9.7 kmh 29.93 in1013.5 mb 0.00 in0.0 mm 0.00 in0.0 mm 0.00 in0.0 mm
05:55 AM 61.3°F16.3°C 54.1°F12.3°C 77% 2.9 mph WSW4.7 kmh WSW 6.9 mph11.1 kmh 29.95 in1014.2 mb 0.00 in0.0 mm 0.00 in0.0 mm 0.00 in0.0 mm
06:05 AM 61.2°F16.2°C 54.3°F12.4°C 78% 2.0 mph WNW3.2 kmh WNW 6.0 mph9.7 kmh 29.94 in1013.9 mb 0.00 in0.0 mm 0.00 in0.0 mm 0.00 in0.0 mm
06:15 AM 61.0°F16.1°C 54.5°F12.5°C 79% 2.0 mph SSE3.2 kmh SSE 4.0 mph6.4 kmh 29.95 in1014.2 mb 0.00 in0.0 mm 0.00 in0.0 mm 0.00 in0.0 mm
06:25 AM 60.8°F16.0°C 54.7°F12.6°C 80% 2.0 mph SSE3.2 kmh SSE 4.0 mph6.4 kmh 29.94 in1013.9 mb 0.00 in0.0 mm 0.00 in0.0 mm 0.00 in0.0 mm
06:35 AM 61.0°F16.1°C 54.7°F12.6°C 80% 2.0 mph SE3.2 kmh SE 4.0 mph6.4 kmh 29.96 in1014.6 mb 0.00 in0.0 mm 0.00 in0.0 mm 0.00 in0.0 mm
06:45 AM 61.0°F16.1°C 54.5°F12.5°C 79% 2.9 mph ESE4.7 kmh ESE 6.0 mph9.7 kmh 29.95 in1014.2 mb 0.00 in0.0 mm 0.00 in0.0 mm 0.00 in0.0 mm
06:55 AM 61.0°F16.1°C 54.5°F12.5°C 79% 2.0 mph ESE3.2 kmh ESE 4.9 mph7.9 kmh 29.95 in1014.2 mb 0.00 in0.0 mm 0.00 in0.0 mm 0.00 in0.0 mm
07:05 AM 61.0°F16.1°C 54.1°F12.3°C 78% 0.9 mph ESE1.4 kmh ESE 2.9 mph4.7 kmh 29.96 in1014.6 mb 0.00 in0.0 mm 0.00 in0.0 mm 0.00 in0.0 mm
07:15 AM 61.0°F16.1°C 54.5°F12.5°C 79% 0.9 mph E1.4 kmh E 2.9 mph4.7 kmh 29.95 in1014.2 mb 0.00 in0.0 mm 0.00 in0.0 mm 0.00 in0.0 mm
07:25 AM 60.8°F16.0°C 54.3°F12.4°C 79% 2.0 mph NE3.2 kmh NE 5.0 mph8.0 kmh 29.93 in1013.5 mb 0.00 in0.0 mm 0.00 in0.0 mm 0.00 in0.0 mm
07:35 AM 61.0°F16.1°C 54.5°F12.5°C 79% 2.0 mph ESE3.2 kmh ESE 2.9 mph4.7 kmh 29.94 in1013.9 mb 0.00 in0.0 mm 0.00 in0.0 mm 0.00 in0.0 mm
07:45 AM 61.2°F16.2°C 54.3°F12.4°C 78% 0.9 mph SW1.4 kmh SW 2.9 mph4.7 kmh 29.97 in1014.9 mb 0.00 in0.0 mm 0.00 in0.0 mm 0.00 in0.0 mm
07:55 AM 61.3°F16.3°C 54.5°F12.5°C 78% 0.9 mph NW1.4 kmh NW 3.0 mph4.8 kmh 29.98 in1015.2 mb 0.00 in0.0 mm 0.00 in0.0 mm 0.00 in0.0 mm
08:05 AM 61.5°F16.4°C 54.7°F12.6°C 78% Calm Calm 2.0 mph3.2 kmh 29.98 in1015.2 mb 0.00 in0.0 mm 0.00 in0.0 mm 0.00 in0.0 mm
08:15 AM 61.5°F16.4°C 54.7°F12.6°C 78% Calm Calm 2.9 mph4.7 kmh 29.99 in1015.6 mb 0.00 in0.0 mm 0.00 in0.0 mm 0.00 in0.0 mm
08:25 AM 61.9°F16.6°C 54.9°F12.7°C 78% Calm Calm 0.9 mph1.4 kmh 29.99 in1015.6 mb 0.00 in0.0 mm 0.00 in0.0 mm 0.00 in0.0 mm
08:35 AM 62.1°F16.7°C 55.0°F12.8°C 78% 0.9 mph SE1.4 kmh SE 2.9 mph4.7 kmh 30.00 in1015.9 mb 0.00 in0.0 mm 0.00 in0.0 mm 0.00 in0.0 mm
08:45 AM 62.6°F17.0°C 54.9°F12.7°C 76% 0.9 mph SSW1.4 kmh SSW 6.0 mph9.7 kmh 30.02 in1016.6 mb 0.00 in0.0 mm 0.00 in0.0 mm 0.00 in0.0 mm
08:55 AM 63.3°F17.4°C 55.6°F13.1°C 76% 2.9 mph NW4.7 kmh NW 8.1 mph13.0 kmh 30.03 in1016.9 mb 0.00 in0.0 mm 0.00 in0.0 mm 0.00 in0.0 mm
09:05 AM 63.1°F17.3°C 55.8°F13.2°C 77% 4.0 mph S6.4 kmh S 9.0 mph14.5 kmh 30.02 in1016.6 mb 0.00 in0.0 mm 0.00 in0.0 mm 0.00 in0.0 mm
09:15 AM 62.8°F17.1°C 55.8°F13.2°C 78% 2.9 mph ESE4.7 kmh ESE 6.0 mph9.7 kmh 30.00 in1015.9 mb 0.00 in0.0 mm 0.00 in0.0 mm 0.00 in0.0 mm
09:25 AM 63.0°F17.2°C 55.6°F13.1°C 77% 2.0 mph SW3.2 kmh SW 6.0 mph9.7 kmh 30.01 in1016.3 mb 0.00 in0.0 mm 0.00 in0.0 mm 0.00 in0.0 mm
09:35 AM 63.1°F17.3°C 55.4°F13.0°C 76% 0.9 mph N1.4 kmh N 2.9 mph4.7 kmh 30.01 in1016.3 mb 0.00 in0.0 mm 0.00 in0.0 mm 0.00 in0.0 mm
09:45 AM 63.1°F17.3°C 55.8°F13.2°C 77% Calm Calm 2.0 mph3.2 kmh 30.02 in1016.6 mb 0.00 in0.0 mm 0.00 in0.0 mm 0.00 in0.0 mm
09:55 AM 63.0°F17.2°C 55.9°F13.3°C 78% 0.9 mph SE1.4 kmh SE 2.0 mph3.2 kmh 30.03 in1016.9 mb 0.00 in0.0 mm 0.00 in0.0 mm 0.00 in0.0 mm
10:05 AM 62.6°F17.0°C 56.3°F13.5°C 80% 0.9 mph W1.4 kmh W 2.0 mph3.2 kmh 30.04 in1017.3 mb 0.00 in0.0 mm 0.00 in0.0 mm 0.00 in0.0 mm
10:15 AM 62.1°F16.7°C 56.8°F13.8°C 83% 0.9 mph W1.4 kmh W 2.0 mph3.2 kmh 30.05 in1017.6 mb 0.01 in0.3 mm 0.06 in1.5 mm 0.01 in0.3 mm
10:25 AM 61.9°F16.6°C 57.6°F14.2°C 86% Calm Calm 2.0 mph3.2 kmh 30.06 in1017.9 mb 0.03 in0.8 mm 0.12 in3.0 mm 0.03 in0.8 mm
10:35 AM 61.5°F16.4°C 57.6°F14.2°C 87% Calm Calm -- 30.06 in1017.9 mb 0.05 in1.3 mm 0.12 in3.0 mm 0.05 in1.3 mm
10:45 AM 61.3°F16.3°C 57.7°F14.3°C 88% Calm Calm -- 30.06 in1017.9 mb 0.06 in1.5 mm 0.06 in1.5 mm 0.06 in1.5 mm
10:55 AM 61.3°F16.3°C 58.1°F14.5°C 89% Calm Calm -- 30.06 in1017.9 mb 0.08 in2.0 mm 0.12 in3.0 mm 0.08 in2.0 mm
11:05 AM 61.2°F16.2°C 58.3°F14.6°C 90% Calm Calm 2.0 mph3.2 kmh 30.06 in1017.9 mb 0.10 in2.5 mm 0.02 in0.5 mm 0.10 in2.5 mm
11:15 AM 61.2°F16.2°C 58.5°F14.7°C 91% 2.0 mph ENE3.2 kmh ENE 5.0 mph8.0 kmh 30.04 in1017.3 mb 0.09 in2.3 mm 0.00 in0.0 mm 0.10 in2.5 mm
11:25 AM 60.8°F16.0°C 58.1°F14.5°C 91% 4.0 mph ENE6.4 kmh ENE 8.1 mph13.0 kmh 30.02 in1016.6 mb 0.08 in2.0 mm 0.00 in0.0 mm 0.11 in2.8 mm
11:35 AM 60.6°F15.9°C 57.9°F14.4°C 91% 4.9 mph ENE7.9 kmh ENE 8.9 mph14.3 kmh 30.02 in1016.6 mb 0.07 in1.8 mm 0.00 in0.0 mm 0.12 in3.0 mm
11:45 AM 60.6°F15.9°C 57.9°F14.4°C 91% 4.0 mph NE6.4 kmh NE 6.9 mph11.1 kmh 30.01 in1016.3 mb 0.07 in1.8 mm 0.00 in0.0 mm 0.13 in3.3 mm
11:55 AM 61.0°F16.1°C 58.3°F14.6°C 91% 2.0 mph ENE3.2 kmh ENE 4.9 mph7.9 kmh 30.01 in1016.3 mb 0.05 in1.3 mm 0.00 in0.0 mm 0.13 in3.3 mm
12:05 PM 61.5°F16.4°C 58.6°F14.8°C 90% 2.0 mph E3.2 kmh E 6.0 mph9.7 kmh 30.01 in1016.3 mb 0.03 in0.8 mm 0.00 in0.0 mm 0.13 in3.3 mm
12:15 PM 62.8°F17.1°C 59.5°F15.3°C 89% 0.9 mph WNW1.4 kmh WNW 4.9 mph7.9 kmh 30.01 in1016.3 mb 0.03 in0.8 mm 0.00 in0.0 mm 0.13 in3.3 mm
12:25 PM 63.0°F17.2°C 59.7°F15.4°C 89% 4.0 mph WNW6.4 kmh WNW 6.0 mph9.7 kmh 30.02 in1016.6 mb 0.02 in0.5 mm 0.00 in0.0 mm 0.13 in3.3 mm
12:35 PM 63.0°F17.2°C 59.4°F15.2°C 88% 4.0 mph W6.4 kmh W 8.1 mph13.0 kmh 30.03 in1016.9 mb 0.01 in0.3 mm 0.00 in0.0 mm 0.13 in3.3 mm
12:45 PM 63.1°F17.3°C 59.5°F15.3°C 88% 2.9 mph NW4.7 kmh NW 6.9 mph11.1 kmh 30.03 in1016.9 mb 0.00 in0.0 mm 0.00 in0.0 mm 0.13 in3.3 mm
12:55 PM 63.1°F17.3°C 59.2°F15.1°C 87% 2.0 mph WSW3.2 kmh WSW 4.9 mph7.9 kmh 30.04 in1017.3 mb 0.00 in0.0 mm 0.00 in0.0 mm 0.13 in3.3 mm
01:05 PM 63.3°F17.4°C 59.7°F15.4°C 88% 0.9 mph S1.4 kmh S 2.9 mph4.7 kmh 30.04 in1017.3 mb 0.00 in0.0 mm 0.00 in0.0 mm 0.13 in3.3 mm
01:15 PM 63.3°F17.4°C 59.7°F15.4°C 88% Calm Calm 2.0 mph3.2 kmh 30.02 in1016.6 mb 0.01 in0.3 mm 0.06 in1.5 mm 0.14 in3.6 mm
01:25 PM 63.7°F17.6°C 60.1°F15.6°C 88% Calm Calm 2.0 mph3.2 kmh 30.01 in1016.3 mb 0.01 in0.3 mm 0.00 in0.0 mm 0.14 in3.6 mm
01:35 PM 63.5°F17.5°C 59.9°F15.5°C 88% 2.0 mph ENE3.2 kmh ENE 4.9 mph7.9 kmh 29.99 in1015.6 mb 0.01 in0.3 mm 0.00 in0.0 mm 0.14 in3.6 mm
01:45 PM 63.7°F17.6°C 59.7°F15.4°C 87% 4.0 mph NNE6.4 kmh NNE 8.1 mph13.0 kmh 29.97 in1014.9 mb 0.01 in0.3 mm 0.00 in0.0 mm 0.14 in3.6 mm
01:55 PM 63.3°F17.4°C 58.8°F14.9°C 85% 4.0 mph ENE6.4 kmh ENE 9.0 mph14.5 kmh 29.98 in1015.2 mb 0.01 in0.3 mm 0.00 in0.0 mm 0.14 in3.6 mm
02:05 PM 63.3°F17.4°C 58.8°F14.9°C 85% 2.9 mph ENE4.7 kmh ENE 8.1 mph13.0 kmh 29.98 in1015.2 mb 0.01 in0.3 mm 0.00 in0.0 mm 0.14 in3.6 mm
02:15 PM 63.3°F17.4°C 58.8°F14.9°C 85% 0.9 mph N1.4 kmh N 4.0 mph6.4 kmh 29.98 in1015.2 mb 0.00 in0.0 mm 0.00 in0.0 mm 0.14 in3.6 mm
02:25 PM 63.1°F17.3°C 58.6°F14.8°C 85% 2.0 mph NE3.2 kmh NE 2.9 mph4.7 kmh 29.98 in1015.2 mb 0.01 in0.3 mm 0.06 in1.5 mm 0.15 in3.8 mm
02:35 PM 63.3°F17.4°C 58.8°F14.9°C 85% Calm Calm 0.9 mph1.4 kmh 29.98 in1015.2 mb 0.01 in0.3 mm 0.00 in0.0 mm 0.15 in3.8 mm
02:45 PM 63.7°F17.6°C 59.4°F15.2°C 86% Calm Calm 0.9 mph1.4 kmh 29.99 in1015.6 mb 0.01 in0.3 mm 0.00 in0.0 mm 0.15 in3.8 mm
02:55 PM 63.9°F17.7°C 59.2°F15.1°C 85% 0.9 mph W1.4 kmh W 2.9 mph4.7 kmh 30.00 in1015.9 mb 0.01 in0.3 mm 0.00 in0.0 mm 0.15 in3.8 mm
03:05 PM 63.3°F17.4°C 58.1°F14.5°C 83% 2.9 mph WNW4.7 kmh WNW 6.0 mph9.7 kmh 30.00 in1015.9 mb 0.01 in0.3 mm 0.00 in0.0 mm 0.15 in3.8 mm
03:15 PM 63.3°F17.4°C 58.1°F14.5°C 83% 2.9 mph NW4.7 kmh NW 6.0 mph9.7 kmh 30.00 in1015.9 mb 0.01 in0.3 mm 0.00 in0.0 mm 0.15 in3.8 mm
03:25 PM 63.1°F17.3°C 57.6°F14.2°C 82% 4.0 mph WNW6.4 kmh WNW 6.9 mph11.1 kmh 29.99 in1015.6 mb 0.00 in0.0 mm 0.00 in0.0 mm 0.15 in3.8 mm
03:35 PM 62.8°F17.1°C 57.6°F14.2°C 83% 2.9 mph NW4.7 kmh NW 6.9 mph11.1 kmh 29.97 in1014.9 mb 0.00 in0.0 mm 0.00 in0.0 mm 0.15 in3.8 mm
03:45 PM 62.2°F16.8°C 57.7°F14.3°C 85% 2.9 mph N4.7 kmh N 6.0 mph9.7 kmh 29.97 in1014.9 mb 0.01 in0.3 mm 0.06 in1.5 mm 0.16 in4.1 mm
03:55 PM 61.7°F16.5°C 57.4°F14.1°C 86% 2.9 mph NW4.7 kmh NW 8.1 mph13.0 kmh 29.97 in1014.9 mb 0.01 in0.3 mm 0.00 in0.0 mm 0.16 in4.1 mm
04:05 PM 61.3°F16.3°C 57.7°F14.3°C 88% 2.0 mph ENE3.2 kmh ENE 4.9 mph7.9 kmh 29.94 in1013.9 mb 0.01 in0.3 mm 0.00 in0.0 mm 0.16 in4.1 mm
04:15 PM 61.7°F16.5°C 58.5°F14.7°C 89% 2.0 mph N3.2 kmh N 4.9 mph7.9 kmh 29.93 in1013.5 mb 0.01 in0.3 mm 0.00 in0.0 mm 0.16 in4.1 mm
04:25 PM 62.2°F16.8°C 58.6°F14.8°C 88% 0.9 mph N1.4 kmh N 4.9 mph7.9 kmh 29.95 in1014.2 mb 0.01 in0.3 mm 0.00 in0.0 mm 0.16 in4.1 mm
04:35 PM 61.9°F16.6°C 57.0°F13.9°C 84% 2.0 mph WNW3.2 kmh WNW 4.9 mph7.9 kmh 29.96 in1014.6 mb 0.01 in0.3 mm 0.00 in0.0 mm 0.16 in4.1 mm
04:45 PM 62.1°F16.7°C 57.6°F14.2°C 85% 0.9 mph W1.4 kmh W 2.9 mph4.7 kmh 29.97 in1014.9 mb 0.00 in0.0 mm 0.00 in0.0 mm 0.16 in4.1 mm
04:55 PM 61.9°F16.6°C 57.4°F14.1°C 85% 0.9 mph SW1.4 kmh SW 3.0 mph4.8 kmh 29.96 in1014.6 mb 0.00 in0.0 mm 0.00 in0.0 mm 0.16 in4.1 mm
05:05 PM 61.5°F16.4°C 57.4°F14.1°C 86% 0.9 mph SW1.4 kmh SW 4.0 mph6.4 kmh 29.98 in1015.2 mb 0.00 in0.0 mm 0.00 in0.0 mm 0.16 in4.1 mm
05:15 PM 61.3°F16.3°C 57.2°F14.0°C 86% Calm Calm 0.9 mph1.4 kmh 29.99 in1015.6 mb 0.02 in0.5 mm 0.12 in3.0 mm 0.18 in4.6 mm
05:25 PM 61.2°F16.2°C 57.0°F13.9°C 86% Calm Calm 2.0 mph3.2 kmh 29.98 in1015.2 mb 0.02 in0.5 mm 0.00 in0.0 mm 0.18 in4.6 mm
05:35 PM 61.2°F16.2°C 57.2°F14.0°C 87% Calm Calm 2.0 mph3.2 kmh 29.98 in1015.2 mb 0.02 in0.5 mm 0.00 in0.0 mm 0.18 in4.6 mm
05:45 PM 61.3°F16.3°C 57.2°F14.0°C 86% Calm Calm 2.0 mph3.2 kmh 29.98 in1015.2 mb 0.02 in0.5 mm 0.00 in0.0 mm 0.18 in4.6 mm
05:55 PM 61.5°F16.4°C 57.0°F13.9°C 85% 0.9 mph W1.4 kmh W 2.0 mph3.2 kmh 29.98 in1015.2 mb 0.02 in0.5 mm 0.00 in0.0 mm 0.18 in4.6 mm
06:05 PM 61.5°F16.4°C 56.3°F13.5°C 83% 0.9 mph W1.4 kmh W 3.0 mph4.8 kmh 29.98 in1015.2 mb 0.02 in0.5 mm 0.00 in0.0 mm 0.18 in4.6 mm
06:15 PM 61.3°F16.3°C 54.9°F12.7°C 79% 2.0 mph W3.2 kmh W 4.0 mph6.4 kmh 29.98 in1015.2 mb 0.00 in0.0 mm 0.00 in0.0 mm 0.18 in4.6 mm
06:25 PM 61.3°F16.3°C 54.9°F12.7°C 79% 0.9 mph NW1.4 kmh NW 2.0 mph3.2 kmh 29.98 in1015.2 mb 0.00 in0.0 mm 0.00 in0.0 mm 0.18 in4.6 mm
06:35 PM 61.2°F16.2°C 56.3°F13.5°C 84% 2.0 mph WNW3.2 kmh WNW 4.0 mph6.4 kmh 29.99 in1015.6 mb 0.00 in0.0 mm 0.00 in0.0 mm 0.18 in4.6 mm
06:45 PM 60.3°F15.7°C 55.8°F13.2°C 85% 0.9 mph W1.4 kmh W 2.9 mph4.7 kmh 29.99 in1015.6 mb 0.00 in0.0 mm 0.00 in0.0 mm 0.18 in4.6 mm
06:55 PM 60.1°F15.6°C 55.9°F13.3°C 86% Calm Calm 2.0 mph3.2 kmh 30.00 in1015.9 mb 0.00 in0.0 mm 0.00 in0.0 mm 0.18 in4.6 mm
07:05 PM 59.7°F15.4°C 55.6°F13.1°C 86% Calm Calm 0.9 mph1.4 kmh 30.00 in1015.9 mb 0.00 in0.0 mm 0.00 in0.0 mm 0.18 in4.6 mm
07:15 PM 59.5°F15.3°C 55.4°F13.0°C 86% Calm Calm 0.9 mph1.4 kmh 30.00 in1015.9 mb 0.00 in0.0 mm 0.00 in0.0 mm 0.18 in4.6 mm
07:25 PM 59.4°F15.2°C 55.2°F12.9°C 86% Calm Calm 0.9 mph1.4 kmh 30.01 in1016.3 mb 0.00 in0.0 mm 0.00 in0.0 mm 0.18 in4.6 mm
07:35 PM 59.2°F15.1°C 55.4°F13.0°C 87% Calm Calm 2.0 mph3.2 kmh 30.02 in1016.6 mb 0.00 in0.0 mm 0.00 in0.0 mm 0.18 in4.6 mm
07:45 PM 58.8°F14.9°C 54.7°F12.6°C 86% Calm Calm 2.0 mph3.2 kmh 30.02 in1016.6 mb 0.00 in0.0 mm 0.00 in0.0 mm 0.18 in4.6 mm
07:55 PM 58.8°F14.9°C 54.7°F12.6°C 86% 0.9 mph WNW1.4 kmh WNW 2.0 mph3.2 kmh 30.03 in1016.9 mb 0.00 in0.0 mm 0.00 in0.0 mm 0.18 in4.6 mm
08:05 PM 58.3°F14.6°C 54.1°F12.3°C 86% 2.0 mph W3.2 kmh W 3.0 mph4.8 kmh 30.03 in1016.9 mb 0.00 in0.0 mm 0.00 in0.0 mm 0.18 in4.6 mm
08:15 PM 58.3°F14.6°C 54.7°F12.6°C 88% Calm Calm 2.0 mph3.2 kmh 30.04 in1017.3 mb 0.00 in0.0 mm 0.00 in0.0 mm 0.18 in4.6 mm
08:25 PM 57.7°F14.3°C 53.6°F12.0°C 86% 2.0 mph WSW3.2 kmh WSW 6.0 mph9.7 kmh 30.04 in1017.3 mb 0.00 in0.0 mm 0.00 in0.0 mm 0.18 in4.6 mm
08:35 PM 57.4°F14.1°C 53.2°F11.8°C 86% 0.9 mph SE1.4 kmh SE 6.0 mph9.7 kmh 30.04 in1017.3 mb 0.00 in0.0 mm 0.00 in0.0 mm 0.18 in4.6 mm
08:45 PM 57.2°F14.0°C 53.4°F11.9°C 87% 0.9 mph ESE1.4 kmh ESE 4.0 mph6.4 kmh 30.04 in1017.3 mb 0.00 in0.0 mm 0.00 in0.0 mm 0.18 in4.6 mm
08:55 PM 57.0°F13.9°C 53.8°F12.1°C 89% 0.9 mph E1.4 kmh E 4.0 mph6.4 kmh 30.04 in1017.3 mb 0.00 in0.0 mm 0.00 in0.0 mm 0.18 in4.6 mm
09:05 PM 57.0°F13.9°C 54.1°F12.3°C 90% 0.9 mph ESE1.4 kmh ESE 5.0 mph8.0 kmh 30.04 in1017.3 mb 0.00 in0.0 mm 0.00 in0.0 mm 0.18 in4.6 mm
09:15 PM 57.0°F13.9°C 54.1°F12.3°C 90% 2.0 mph ESE3.2 kmh ESE 6.9 mph11.1 kmh 30.05 in1017.6 mb 0.00 in0.0 mm 0.00 in0.0 mm 0.18 in4.6 mm
09:25 PM 56.8°F13.8°C 54.3°F12.4°C 91% 2.0 mph E3.2 kmh E 4.0 mph6.4 kmh 30.05 in1017.6 mb 0.01 in0.3 mm 0.06 in1.5 mm 0.19 in4.8 mm
09:35 PM 56.8°F13.8°C 54.3°F12.4°C 91% 0.9 mph SE1.4 kmh SE 5.0 mph8.0 kmh 30.05 in1017.6 mb 0.01 in0.3 mm 0.00 in0.0 mm 0.19 in4.8 mm
09:45 PM 56.8°F13.8°C 54.3°F12.4°C 91% Calm Calm 4.0 mph6.4 kmh 30.05 in1017.6 mb 0.01 in0.3 mm 0.00 in0.0 mm 0.19 in4.8 mm
09:55 PM 56.7°F13.7°C 54.3°F12.4°C 92% Calm Calm 0.9 mph1.4 kmh 30.06 in1017.9 mb 0.02 in0.5 mm 0.06 in1.5 mm 0.20 in5.1 mm
10:05 PM 56.7°F13.7°C 54.3°F12.4°C 92% Calm Calm 2.0 mph3.2 kmh 30.06 in1017.9 mb 0.04 in1.0 mm 0.02 in0.5 mm 0.22 in5.6 mm
10:15 PM 56.5°F13.6°C 54.5°F12.5°C 93% 0.9 mph NE1.4 kmh NE 2.0 mph3.2 kmh 30.06 in1017.9 mb 0.04 in1.0 mm 0.00 in0.0 mm 0.22 in5.6 mm
10:25 PM 56.5°F13.6°C 54.5°F12.5°C 93% 0.9 mph NNE1.4 kmh NNE 2.0 mph3.2 kmh 30.06 in1017.9 mb 0.04 in1.0 mm 0.00 in0.0 mm 0.23 in5.8 mm
10:35 PM 56.1°F13.4°C 54.5°F12.5°C 94% Calm Calm 3.0 mph4.8 kmh 30.06 in1017.9 mb 0.04 in1.0 mm 0.00 in0.0 mm 0.23 in5.8 mm
10:45 PM 56.1°F13.4°C 54.5°F12.5°C 94% 0.9 mph NE1.4 kmh NE 2.0 mph3.2 kmh 30.06 in1017.9 mb 0.04 in1.0 mm 0.00 in0.0 mm 0.23 in5.8 mm
10:55 PM 56.1°F13.4°C 54.5°F12.5°C 94% 0.9 mph ENE1.4 kmh ENE 3.0 mph4.8 kmh 30.06 in1017.9 mb 0.03 in0.8 mm 0.00 in0.0 mm 0.23 in5.8 mm
11:05 PM 56.1°F13.4°C 54.7°F12.6°C 95% Calm Calm 0.9 mph1.4 kmh 30.06 in1017.9 mb 0.01 in0.3 mm 0.00 in0.0 mm 0.23 in5.8 mm
11:15 PM 56.1°F13.4°C 54.7°F12.6°C 95% Calm Calm 2.0 mph3.2 kmh 30.06 in1017.9 mb 0.01 in0.3 mm 0.00 in0.0 mm 0.23 in5.8 mm
11:25 PM 56.1°F13.4°C 54.7°F12.6°C 95% Calm Calm 0.9 mph1.4 kmh 30.06 in1017.9 mb 0.00 in0.0 mm 0.00 in0.0 mm 0.23 in5.8 mm
11:35 PM 56.1°F13.4°C 54.7°F12.6°C 95% Calm Calm 2.0 mph3.2 kmh 30.06 in1017.9 mb 0.00 in0.0 mm 0.00 in0.0 mm 0.23 in5.8 mm
11:45 PM 56.3°F13.5°C 54.9°F12.7°C 95% Calm Calm 0.9 mph1.4 kmh 30.07 in1018.3 mb 0.00 in0.0 mm 0.00 in0.0 mm 0.23 in5.8 mm
11:55 PM 56.5°F13.6°C 55.0°F12.8°C 95% Calm Calm 0.9 mph1.4 kmh 30.07 in1018.3 mb 0.00 in0.0 mm 0.00 in0.0 mm 0.23 in5.8 mm